Time;durP1;ratioP1;P1;durP2;ratioP2;P2;SDS_P1;SDS_P2;PMS_P1;PMS_P2;Temp;Humidity;BMP_temperature;BMP_pressure;BME280_temperature;BME280_humidity;BME280_pressure;Samples;Min_cycle;Max_cycle;Signal;HPM_P1;HPM_P2
2021/01/02 00:02:04;;;;;;;170.48;34.95;;;;;;;;;;4895879;29;20285;-70
2021/01/02 00:04:42;;;;;;;190.35;36.70;;;;;;;;;;4891842;29;20044;-70
2021/01/02 00:07:27;;;;;;;219.98;39.65;;;;;;;;;;4893491;29;20088;-70
2021/01/02 00:09:58;;;;;;;159.48;34.47;;;;;;;;;;4885834;29;20057;-70
2021/01/02 00:12:45;;;;;;;185.40;36.90;;;;;;;;;;4894122;29;20052;-70
2021/01/02 00:15:16;;;;;;;149.32;34.58;;;;;;;;;;4885874;29;20079;-70
2021/01/02 00:17:45;;;;;;;219.32;39.28;;;;;;;;;;4891016;29;20473;-70
2021/01/02 00:20:11;;;;;;;254.38;41.10;;;;;;;;;;4892240;29;20052;-70
2021/01/02 00:22:40;;;;;;;179.35;37.85;;;;;;;;;;4893445;29;20064;-70
2021/01/02 00:25:10;;;;;;;275.48;42.92;;;;;;;;;;4894561;29;20048;-70
2021/01/02 00:27:55;;;;;;;160.82;35.92;;;;;;;;;;4896080;29;20048;-70
2021/01/02 00:30:40;;;;;;;233.25;40.00;;;;;;;;;;4894345;29;20052;-70
2021/01/02 00:33:16;;;;;;;112.65;32.42;;;;;;;;;;4889026;29;20048;-70
2021/01/02 00:35:43;;;;;;;121.15;33.70;;;;;;;;;;4887997;29;20056;-70
2021/01/02 00:38:11;;;;;;;155.63;36.80;;;;;;;;;;4889942;29;20044;-70
2021/01/02 00:40:38;;;;;;;127.97;34.72;;;;;;;;;;4895640;29;20478;-70
2021/01/02 00:43:07;;;;;;;236.27;39.17;;;;;;;;;;4888011;29;20066;-70
2021/01/02 00:45:34;;;;;;;184.52;37.13;;;;;;;;;;4891372;29;20309;-70
2021/01/02 00:48:01;;;;;;;156.68;35.47;;;;;;;;;;4892816;29;20116;-70
2021/01/02 00:50:28;;;;;;;181.15;37.63;;;;;;;;;;4892432;29;20068;-70
2021/01/02 00:52:58;;;;;;;158.88;35.67;;;;;;;;;;4893152;29;20048;-70
2021/01/02 00:55:45;;;;;;;180.68;38.30;;;;;;;;;;4873284;29;20045;-70
2021/01/02 00:58:20;;;;;;;137.40;35.38;;;;;;;;;;4890412;29;20073;-70
2021/01/02 01:01:04;;;;;;;204.15;39.65;;;;;;;;;;4892584;29;20084;-69
2021/01/02 01:03:56;;;;;;;231.40;39.78;;;;;;;;;;4871261;29;20136;-70
2021/01/02 01:06:25;;;;;;;162.90;34.95;;;;;;;;;;4890743;29;20658;-70
2021/01/02 01:08:53;;;;;;;223.40;39.33;;;;;;;;;;4894038;29;20052;-70
2021/01/02 01:11:21;;;;;;;183.63;37.80;;;;;;;;;;4889421;29;20044;-70
2021/01/02 01:13:48;;;;;;;;;;;;;;;;;;4894330;29;20113;-70
2021/01/02 01:16:21;;;;;;;355.35;39.78;;;;;;;;;;4893869;29;19927;-70
2021/01/02 01:19:05;;;;;;;190.43;36.92;;;;;;;;;;4894761;29;20116;-70
2021/01/02 01:21:36;;;;;;;265.67;41.83;;;;;;;;;;4894700;29;20116;-70
2021/01/02 01:24:22;;;;;;;170.20;38.15;;;;;;;;;;4893142;29;20056;-70
2021/01/02 01:27:03;;;;;;;151.48;34.30;;;;;;;;;;4892919;29;20096;-70
2021/01/02 01:29:35;;;;;;;143.90;36.65;;;;;;;;;;4891023;29;20045;-70
2021/01/02 01:32:01;;;;;;;113.43;32.10;;;;;;;;;;4890361;29;20092;-70
2021/01/02 01:34:32;;;;;;;124.93;35.22;;;;;;;;;;4889878;29;20048;-70
2021/01/02 01:37:01;;;;;;;146.02;36.90;;;;;;;;;;4896853;29;20044;-70
2021/01/02 01:39:28;;;;;;;142.15;35.60;;;;;;;;;;4896487;29;20053;-70
2021/01/02 01:41:58;;;;;;;100.18;26.17;;;;;;;;;;4892449;29;20135;-70
2021/01/02 01:44:44;;;;;;;191.35;35.47;;;;;;;;;;4893201;29;20060;-70
2021/01/02 01:47:21;;;;;;;199.70;36.80;;;;;;;;;;4896075;29;20112;-70
2021/01/02 01:49:57;;;;;;;618.53;52.25;;;;;;;;;;4887792;29;20049;-70
2021/01/02 01:52:39;;;;;;;318.63;40.30;;;;;;;;;;4888903;29;20048;-70
2021/01/02 01:55:13;;;;;;;201.77;38.80;;;;;;;;;;4894262;29;20052;-70
2021/01/02 01:57:40;;;;;;;267.27;40.25;;;;;;;;;;4887509;29;20049;-70
2021/01/02 02:00:16;;;;;;;169.70;35.85;;;;;;;;;;4895813;29;20104;-70
2021/01/02 02:02:45;;;;;;;143.07;33.72;;;;;;;;;;4889188;29;20209;-70
2021/01/02 02:05:11;;;;;;;138.82;33.53;;;;;;;;;;4896257;29;20152;-70
2021/01/02 02:07:56;;;;;;;138.35;34.25;;;;;;;;;;4896675;29;20045;-70
2021/01/02 02:10:26;;;;;;;158.30;34.20;;;;;;;;;;4894905;29;20109;-71
2021/01/02 02:12:54;;;;;;;134.25;34.63;;;;;;;;;;4887286;29;20517;-70
2021/01/02 02:15:24;;;;;;;154.30;34.53;;;;;;;;;;4894163;29;20052;-69
2021/01/02 02:18:11;;;;;;;176.02;35.65;;;;;;;;;;4894118;29;20061;-71
2021/01/02 02:20:45;;;;;;;212.00;37.00;;;;;;;;;;4894911;29;20092;-70
2021/01/02 02:23:13;;;;;;;166.55;36.63;;;;;;;;;;4892847;29;20045;-70
2021/01/02 02:25:42;;;;;;;132.40;32.95;;;;;;;;;;4888007;29;20049;-69
2021/01/02 02:28:08;;;;;;;135.98;34.05;;;;;;;;;;4896021;29;20052;-70
2021/01/02 02:30:36;;;;;;;135.65;32.45;;;;;;;;;;4894595;29;20060;-70
2021/01/02 02:33:05;;;;;;;157.98;35.65;;;;;;;;;;4900519;29;20048;-70
2021/01/02 02:35:32;;;;;;;151.60;34.60;;;;;;;;;;4892925;29;20120;-70
2021/01/02 02:37:58;;;;;;;191.45;37.40;;;;;;;;;;4889281;29;20476;-70
2021/01/02 02:40:24;;;;;;;138.57;34.80;;;;;;;;;;4893961;29;20060;-70
2021/01/02 02:43:09;;;;;;;188.43;36.85;;;;;;;;;;4896676;29;20055;-70
2021/01/02 02:45:36;;;;;;;124.78;31.75;;;;;;;;;;4889799;29;20056;-70
2021/01/02 02:48:10;;;;;;;125.93;32.53;;;;;;;;;;4895113;29;20052;-70
2021/01/02 02:50:37;;;;;;;129.35;33.00;;;;;;;;;;4900231;29;20051;-70
2021/01/02 02:53:12;;;;;;;114.72;31.42;;;;;;;;;;4896800;29;20047;-70
2021/01/02 02:55:42;;;;;;;119.18;33.75;;;;;;;;;;4895400;29;20570;-70
2021/01/02 02:58:09;;;;;;;99.15;30.75;;;;;;;;;;4898817;29;20049;-69
2021/01/02 03:00:36;;;;;;;138.80;34.72;;;;;;;;;;4893675;29;20051;-69
2021/01/02 03:03:03;;;;;;;111.22;32.72;;;;;;;;;;4894339;29;20037;-69
2021/01/02 03:05:29;;;;;;;186.20;36.58;;;;;;;;;;4894573;29;20056;-70
2021/01/02 03:07:56;;;;;;;90.63;30.48;;;;;;;;;;4895791;29;20090;-69
2021/01/02 03:10:23;;;;;;;160.10;35.50;;;;;;;;;;4898327;29;20575;-69
2021/01/02 03:12:50;;;;;;;110.32;30.98;;;;;;;;;;4894951;29;20051;-69
2021/01/02 03:15:17;;;;;;;180.70;35.17;;;;;;;;;;4893845;29;20083;-69
2021/01/02 03:17:44;;;;;;;418.13;44.17;;;;;;;;;;4893472;29;20048;-70
2021/01/02 03:20:12;;;;;;;103.78;28.80;;;;;;;;;;4894882;29;20053;-70
2021/01/02 03:22:38;;;;;;;100.00;29.52;;;;;;;;;;4889544;29;20061;-69
2021/01/02 03:25:05;;;;;;;232.38;35.38;;;;;;;;;;4892654;29;20075;-69
2021/01/02 03:27:31;;;;;;;150.77;26.95;;;;;;;;;;4896329;29;20108;-69
2021/01/02 03:29:57;;;;;;;138.90;31.30;;;;;;;;;;4891432;29;20052;-69
2021/01/02 03:32:24;;;;;;;111.45;31.25;;;;;;;;;;4894850;29;20128;-70
2021/01/02 03:34:50;;;;;;;171.68;33.70;;;;;;;;;;4891903;29;20116;-69
2021/01/02 03:37:17;;;;;;;137.40;33.22;;;;;;;;;;4894660;29;20116;-69
2021/01/02 03:39:43;;;;;;;136.20;32.63;;;;;;;;;;4889265;29;20497;-69
2021/01/02 03:42:09;;;;;;;203.98;36.78;;;;;;;;;;4894546;29;20100;-69
2021/01/02 03:44:36;;;;;;;348.80;40.83;;;;;;;;;;4893017;29;20048;-69
2021/01/02 03:47:09;;;;;;;213.68;36.33;;;;;;;;;;4891659;29;20063;-69
2021/01/02 03:49:35;;;;;;;156.10;33.03;;;;;;;;;;4888539;29;20052;-69
2021/01/02 03:52:02;;;;;;;99.00;26.37;;;;;;;;;;4893451;29;20040;-70
2021/01/02 03:54:28;;;;;;;103.45;27.85;;;;;;;;;;4893566;29;20048;-69
2021/01/02 03:56:54;;;;;;;104.57;28.25;;;;;;;;;;4893128;29;20060;-70
2021/01/02 03:59:20;;;;;;;96.60;28.27;;;;;;;;;;4875957;29;20123;-70
2021/01/02 04:01:51;;;;;;;77.27;19.40;;;;;;;;;;4892561;29;20076;-70
2021/01/02 04:04:17;;;;;;;104.10;27.85;;;;;;;;;;4893237;29;20348;-70
2021/01/02 04:06:44;;;;;;;91.32;26.48;;;;;;;;;;4889459;29;20462;-70
2021/01/02 04:09:10;;;;;;;87.72;26.65;;;;;;;;;;4891158;29;20064;-70
2021/01/02 04:11:40;;;;;;;105.88;28.70;;;;;;;;;;4893460;29;20056;-70
2021/01/02 04:14:06;;;;;;;117.43;27.88;;;;;;;;;;4886056;29;20477;-70
2021/01/02 04:16:32;;;;;;;244.18;33.65;;;;;;;;;;4890906;29;20105;-70
2021/01/02 04:18:58;;;;;;;274.13;35.55;;;;;;;;;;4888877;29;20048;-70
2021/01/02 04:21:25;;;;;;;165.95;30.77;;;;;;;;;;4894715;29;20580;-70
2021/01/02 04:23:51;;;;;;;109.47;27.83;;;;;;;;;;4884844;29;20059;-70
2021/01/02 04:26:18;;;;;;;143.38;28.48;;;;;;;;;;4887413;29;20052;-70
2021/01/02 04:28:44;;;;;;;99.82;25.20;;;;;;;;;;4890200;29;20063;-70
2021/01/02 04:31:11;;;;;;;98.32;25.08;;;;;;;;;;4894519;29;20561;-70
2021/01/02 04:33:37;;;;;;;91.78;25.15;;;;;;;;;;4886975;29;20089;-70
2021/01/02 04:36:04;;;;;;;122.53;26.80;;;;;;;;;;4890802;29;20056;-70
2021/01/02 04:38:30;;;;;;;128.20;27.33;;;;;;;;;;4895229;29;20300;-70
2021/01/02 04:40:57;;;;;;;186.32;30.20;;;;;;;;;;4895353;29;20052;-70
2021/01/02 04:43:25;;;;;;;120.75;27.17;;;;;;;;;;4893010;29;20045;-70
2021/01/02 04:45:53;;;;;;;245.35;32.75;;;;;;;;;;4892813;29;20041;-70
2021/01/02 04:48:20;;;;;;;183.63;30.05;;;;;;;;;;4894119;29;20049;-70
2021/01/02 04:50:47;;;;;;;187.35;30.75;;;;;;;;;;4888867;29;20063;-69
2021/01/02 04:53:14;;;;;;;547.30;36.37;;;;;;;;;;4894883;29;20084;-70
2021/01/02 04:55:45;;;;;;;714.92;44.90;;;;;;;;;;4887881;29;20289;-70
2021/01/02 04:58:15;;;;;;;953.30;56.33;;;;;;;;;;4892432;29;20096;-69
2021/01/02 05:00:42;;;;;;;1041.07;69.88;;;;;;;;;;4887666;29;20045;-69
2021/01/02 05:03:09;;;;;;;706.00;45.47;;;;;;;;;;4892348;29;20064;-69
2021/01/02 05:05:37;;;;;;;714.35;42.33;;;;;;;;;;4893856;29;20556;-69
2021/01/02 05:08:03;;;;;;;1126.28;60.05;;;;;;;;;;4895486;29;20120;-70
2021/01/02 05:10:36;;;;;;;1262.35;69.63;;;;;;;;;;4894781;29;20045;-69
2021/01/02 05:13:10;;;;;;;1222.80;68.65;;;;;;;;;;4896486;29;20056;-70
2021/01/02 05:15:36;;;;;;;;;;;;;;;;;;4898890;29;20137;-70
2021/01/02 05:18:02;;;;;;;797.80;42.47;;;;;;;;;;4897291;29;20337;-70
2021/01/02 05:20:28;;;;;;;885.28;49.78;;;;;;;;;;4897419;29;20100;-69
2021/01/02 05:23:06;;;;;;;1003.33;55.67;;;;;;;;;;4893614;29;20412;-70
2021/01/02 05:25:32;;;;;;;782.30;45.00;;;;;;;;;;4893559;29;20548;-70
2021/01/02 05:27:58;;;;;;;1001.80;56.08;;;;;;;;;;4898291;29;20044;-69
2021/01/02 05:30:30;;;;;;;827.78;48.63;;;;;;;;;;4896984;29;20045;-69
2021/01/02 05:32:59;;;;;;;836.00;49.17;;;;;;;;;;4895859;29;20055;-69
2021/01/02 05:35:26;;;;;;;966.97;55.50;;;;;;;;;;4880376;29;20041;-70
2021/01/02 05:37:52;;;;;;;;;;;;;;;;;;4896588;29;20045;-70
2021/01/02 05:40:31;;;;;;;611.55;40.38;;;;;;;;;;4894171;29;19923;-70
2021/01/02 05:42:58;;;;;;;895.38;50.30;;;;;;;;;;4890718;29;20087;-69
2021/01/02 05:45:26;;;;;;;919.65;56.72;;;;;;;;;;4893722;29;20071;-70
2021/01/02 05:47:52;;;;;;;720.70;42.53;;;;;;;;;;4891726;29;20037;-70
2021/01/02 05:50:19;;;;;;;578.43;33.53;;;;;;;;;;4897653;29;20059;-70
2021/01/02 05:52:49;;;;;;;694.08;41.38;;;;;;;;;;4876948;29;20104;-69
2021/01/02 05:55:28;;;;;;;418.88;35.03;;;;;;;;;;4897864;29;20045;-69
2021/01/02 05:57:54;;;;;;;251.57;27.05;;;;;;;;;;4898061;29;20056;-70
2021/01/02 06:00:22;;;;;;;624.25;40.03;;;;;;;;;;4894064;29;20513;-69
2021/01/02 06:02:49;;;;;;;484.67;35.35;;;;;;;;;;4893510;29;20045;-70
2021/01/02 06:05:15;;;;;;;459.00;31.77;;;;;;;;;;4890366;29;20053;-69
2021/01/02 06:07:48;;;;;;;405.27;34.25;;;;;;;;;;4895077;29;20092;-69
2021/01/02 06:10:14;;;;;;;561.05;42.15;;;;;;;;;;4890206;29;20060;-69
2021/01/02 06:12:41;;;;;;;125.38;23.13;;;;;;;;;;4893025;29;20096;-69
2021/01/02 06:15:09;;;;;;;751.33;48.30;;;;;;;;;;4896865;29;20090;-70
2021/01/02 06:17:36;;;;;;;394.98;30.52;;;;;;;;;;4892026;29;20052;-69
2021/01/02 06:20:04;;;;;;;616.63;38.38;;;;;;;;;;4893926;29;20048;-69
2021/01/02 06:22:31;;;;;;;717.13;45.63;;;;;;;;;;4889524;29;20080;-70
2021/01/02 06:24:58;;;;;;;597.70;37.95;;;;;;;;;;4892344;29;20064;-70
2021/01/02 06:27:25;;;;;;;855.65;59.92;;;;;;;;;;4893880;29;20080;-70
2021/01/02 06:29:55;;;;;;;769.97;47.40;;;;;;;;;;4896666;29;20155;-70
2021/01/02 06:32:23;;;;;;;419.90;34.50;;;;;;;;;;4895660;29;20066;-70
2021/01/02 06:35:07;;;;;;;607.17;43.13;;;;;;;;;;4897557;29;20068;-69
2021/01/02 06:37:49;;;;;;;483.98;35.55;;;;;;;;;;4898992;29;20509;-70
2021/01/02 06:40:22;;;;;;;286.45;30.25;;;;;;;;;;4889089;29;20104;-69
2021/01/02 06:42:54;;;;;;;282.27;29.98;;;;;;;;;;4894487;29;20049;-70
2021/01/02 06:45:39;;;;;;;222.60;27.60;;;;;;;;;;4895588;29;20052;-69
2021/01/02 06:48:24;;;;;;;230.75;28.38;;;;;;;;;;4893136;29;20147;-70
2021/01/02 06:50:52;;;;;;;433.08;36.85;;;;;;;;;;4890926;29;20049;-70
2021/01/02 06:53:22;;;;;;;300.02;31.52;;;;;;;;;;4893556;29;20104;-69
2021/01/02 06:56:02;;;;;;;136.40;26.30;;;;;;;;;;4890355;29;20060;-70
2021/01/02 06:58:35;;;;;;;152.70;25.85;;;;;;;;;;4893440;29;20052;-70
2021/01/02 07:01:05;;;;;;;164.00;26.00;;;;;;;;;;4872432;29;20059;-70
2021/01/02 07:03:45;;;;;;;179.38;26.10;;;;;;;;;;4889997;29;20143;-69
2021/01/02 07:06:18;;;;;;;312.13;30.35;;;;;;;;;;4887092;29;20060;-69
2021/01/02 07:08:45;;;;;;;180.90;27.65;;;;;;;;;;4896747;29;20068;-69
2021/01/02 07:11:22;;;;;;;90.82;18.35;;;;;;;;;;4895340;29;20082;-69
2021/01/02 07:13:48;;;;;;;510.13;38.90;;;;;;;;;;4896368;29;20040;-70
2021/01/02 07:16:34;;;;;;;385.70;34.53;;;;;;;;;;4891706;29;20036;-70
2021/01/02 07:19:01;;;;;;;175.18;27.73;;;;;;;;;;4891934;29;20092;-69
2021/01/02 07:21:39;;;;;;;473.97;38.40;;;;;;;;;;4879300;29;20056;-70
2021/01/02 07:24:05;;;;;;;;;;;;;;;;;;4892409;29;20115;-69
2021/01/02 07:26:38;;;;;;;144.23;25.40;;;;;;;;;;4892125;29;19931;-70
2021/01/02 07:29:05;;;;;;;149.68;26.85;;;;;;;;;;4894219;29;20103;-69
2021/01/02 07:31:31;;;;;;;170.38;29.35;;;;;;;;;;4885755;29;20060;-70
2021/01/02 07:33:57;;;;;;;197.55;28.13;;;;;;;;;;4894764;29;20109;-70
2021/01/02 07:36:23;;;;;;;262.20;32.78;;;;;;;;;;4887914;29;20052;-70
2021/01/02 07:38:50;;;;;;;153.55;28.05;;;;;;;;;;4890387;29;20048;-70
2021/01/02 07:41:17;;;;;;;190.17;29.50;;;;;;;;;;4893053;29;20191;-70
2021/01/02 07:43:44;;;;;;;170.80;29.67;;;;;;;;;;4892910;29;20063;-70
2021/01/02 07:46:10;;;;;;;187.30;29.33;;;;;;;;;;4884945;29;20124;-69
2021/01/02 07:48:36;;;;;;;199.85;31.55;;;;;;;;;;4896004;29;20568;-69
2021/01/02 07:51:12;;;;;;;205.70;28.75;;;;;;;;;;4890447;29;20053;-69
2021/01/02 07:53:39;;;;;;;210.45;30.70;;;;;;;;;;4895914;29;20060;-69
2021/01/02 07:56:05;;;;;;;253.57;31.40;;;;;;;;;;4898725;29;20128;-69
2021/01/02 07:58:31;;;;;;;167.68;27.27;;;;;;;;;;4890817;29;20049;-69
2021/01/02 08:01:07;;;;;;;186.65;30.08;;;;;;;;;;4895423;29;20052;-70
2021/01/02 08:03:34;;;;;;;421.35;37.00;;;;;;;;;;4896307;29;20430;-69
2021/01/02 08:06:06;;;;;;;147.38;28.67;;;;;;;;;;4895333;29;20067;-69
2021/01/02 08:08:33;;;;;;;159.82;27.65;;;;;;;;;;4897678;29;20045;-70
2021/01/02 08:10:59;;;;;;;136.25;27.60;;;;;;;;;;4895209;29;20037;-69
2021/01/02 08:13:27;;;;;;;292.35;34.35;;;;;;;;;;4890470;29;20048;-70
2021/01/02 08:15:53;;;;;;;186.52;29.25;;;;;;;;;;4890639;29;20044;-70
2021/01/02 08:18:19;;;;;;;151.32;25.92;;;;;;;;;;4893483;29;20044;-69
2021/01/02 08:20:45;;;;;;;265.10;32.25;;;;;;;;;;4896382;29;20044;-69
2021/01/02 08:23:13;;;;;;;166.40;26.45;;;;;;;;;;4892423;29;20057;-70
2021/01/02 08:25:40;;;;;;;245.98;30.88;;;;;;;;;;4890715;29;20044;-69
2021/01/02 08:28:06;;;;;;;157.00;26.00;;;;;;;;;;4883799;29;20049;-70
2021/01/02 08:30:32;;;;;;;271.20;31.13;;;;;;;;;;4895822;29;20060;-70
2021/01/02 08:32:59;;;;;;;287.13;32.08;;;;;;;;;;4889677;29;20129;-69
2021/01/02 08:35:27;;;;;;;201.10;28.50;;;;;;;;;;4894060;29;20055;-69
2021/01/02 08:37:53;;;;;;;;;;;;;;;;;;4893299;29;20321;-69
2021/01/02 08:40:20;;;;;;;245.40;27.23;;;;;;;;;;4891907;29;20402;-70
2021/01/02 08:42:47;;;;;;;244.63;29.17;;;;;;;;;;4898858;29;20044;-69
2021/01/02 08:45:25;;;;;;;197.32;27.77;;;;;;;;;;4886641;29;20508;-70
2021/01/02 08:48:02;;;;;;;239.15;28.02;;;;;;;;;;4887792;29;20065;-70
2021/01/02 08:50:29;;;;;;;124.88;23.80;;;;;;;;;;4896909;29;20083;-70
2021/01/02 08:52:55;;;;;;;222.18;26.48;;;;;;;;;;4899490;29;20047;-70
2021/01/02 08:55:21;;;;;;;150.30;23.20;;;;;;;;;;4895464;29;20048;-70
2021/01/02 08:57:48;;;;;;;239.95;26.77;;;;;;;;;;4897527;29;20055;-70
2021/01/02 09:00:18;;;;;;;265.25;27.75;;;;;;;;;;4895184;29;20049;-70
2021/01/02 09:03:04;;;;;;;302.45;26.80;;;;;;;;;;4899258;29;20044;-70
2021/01/02 09:05:32;;;;;;;149.50;22.52;;;;;;;;;;4897883;29;20048;-70
2021/01/02 09:08:16;;;;;;;607.30;38.28;;;;;;;;;;4898062;29;20049;-70
2021/01/02 09:10:43;;;;;;;149.73;23.27;;;;;;;;;;4897332;29;20052;-69
2021/01/02 09:13:17;;;;;;;261.30;25.30;;;;;;;;;;4895684;29;20041;-70
2021/01/02 09:15:43;;;;;;;201.35;24.90;;;;;;;;;;4895607;29;20049;-69
2021/01/02 09:18:10;;;;;;;576.08;37.08;;;;;;;;;;4898027;29;20444;-69
2021/01/02 09:20:36;;;;;;;575.20;39.03;;;;;;;;;;4893947;29;20056;-69
2021/01/02 09:23:04;;;;;;;251.00;23.60;;;;;;;;;;4899784;29;20553;-69
2021/01/02 09:25:33;;;;;;;272.65;25.58;;;;;;;;;;4895334;29;20056;-69
2021/01/02 09:28:09;;;;;;;215.43;20.60;;;;;;;;;;4891201;29;20097;-69
2021/01/02 09:30:35;;;;;;;756.78;45.28;;;;;;;;;;4901366;29;20489;-69
2021/01/02 09:33:01;;;;;;;182.05;21.13;;;;;;;;;;4898518;29;20124;-69
2021/01/02 09:35:28;;;;;;;455.70;31.83;;;;;;;;;;4902693;29;20051;-69
2021/01/02 09:37:54;;;;;;;179.65;20.50;;;;;;;;;;4899780;29;20513;-69
2021/01/02 09:40:21;;;;;;;110.93;18.67;;;;;;;;;;4898021;29;20052;-69
2021/01/02 09:42:48;;;;;;;134.40;14.57;;;;;;;;;;4893577;29;20158;-69
2021/01/02 09:45:14;;;;;;;185.70;21.05;;;;;;;;;;4894187;29;20056;-69
2021/01/02 09:47:42;;;;;;;141.45;18.85;;;;;;;;;;4888785;29;20124;-69
2021/01/02 09:50:08;;;;;;;176.73;21.80;;;;;;;;;;4894603;29;20049;-69
2021/01/02 09:52:35;;;;;;;256.05;24.50;;;;;;;;;;4884134;29;20055;-69
2021/01/02 09:55:01;;;;;;;152.75;18.80;;;;;;;;;;4892150;29;20065;-69
2021/01/02 09:57:27;;;;;;;135.90;19.65;;;;;;;;;;4894289;29;20064;-70
2021/01/02 09:59:53;;;;;;;150.98;19.15;;;;;;;;;;4892073;29;20097;-70
2021/01/02 10:02:20;;;;;;;130.07;18.40;;;;;;;;;;4888130;29;20484;-69
2021/01/02 10:04:47;;;;;;;99.68;19.38;;;;;;;;;;4898278;29;20394;-69
2021/01/02 10:07:13;;;;;;;203.55;21.08;;;;;;;;;;4890341;29;20065;-70
2021/01/02 10:09:46;;;;;;;191.32;21.17;;;;;;;;;;4893502;29;20048;-70
2021/01/02 10:12:13;;;;;;;294.92;24.90;;;;;;;;;;4896256;29;20055;-70
2021/01/02 10:14:39;;;;;;;129.60;20.00;;;;;;;;;;4891571;29;20041;-70
2021/01/02 10:17:06;;;;;;;171.90;21.65;;;;;;;;;;4897211;29;20064;-70
2021/01/02 10:19:32;;;;;;;208.40;22.38;;;;;;;;;;4885856;29;20041;-70
2021/01/02 10:22:02;;;;;;;250.23;25.65;;;;;;;;;;4894051;29;20116;-70
2021/01/02 10:24:29;;;;;;;234.80;24.67;;;;;;;;;;4893605;29;20049;-70
2021/01/02 10:26:55;;;;;;;354.00;29.00;;;;;;;;;;4898118;29;20409;-70
2021/01/02 10:29:22;;;;;;;115.97;21.02;;;;;;;;;;4892902;29;20033;-69
2021/01/02 10:31:48;;;;;;;182.52;23.30;;;;;;;;;;4891705;29;20524;-69
2021/01/02 10:34:14;;;;;;;74.72;19.58;;;;;;;;;;4887287;29;20040;-69
2021/01/02 10:36:43;;;;;;;87.35;19.58;;;;;;;;;;4894140;29;20036;-69
2021/01/02 10:39:09;;;;;;;68.88;18.73;;;;;;;;;;4892930;29;20093;-70
2021/01/02 10:41:35;;;;;;;98.00;20.98;;;;;;;;;;4889952;29;20080;-70
2021/01/02 10:44:01;;;;;;;58.08;18.58;;;;;;;;;;4892105;29;20055;-70
2021/01/02 10:46:27;;;;;;;53.28;17.92;;;;;;;;;;4892488;29;20048;-69
2021/01/02 10:48:54;;;;;;;50.30;17.88;;;;;;;;;;4894661;29;20639;-70
2021/01/02 10:51:20;;;;;;;54.85;17.90;;;;;;;;;;4886887;29;20052;-70
2021/01/02 10:53:46;;;;;;;71.93;18.52;;;;;;;;;;4892515;29;20044;-69
2021/01/02 10:56:16;;;;;;;44.40;16.15;;;;;;;;;;4892937;29;20052;-69
2021/01/02 10:58:43;;;;;;;52.05;17.35;;;;;;;;;;4884136;29;20464;-70
2021/01/02 11:01:09;;;;;;;41.45;16.50;;;;;;;;;;4893435;29;20045;-70
2021/01/02 11:03:35;;;;;;;52.95;17.98;;;;;;;;;;4892716;29;20079;-70
2021/01/02 11:06:06;;;;;;;41.42;15.73;;;;;;;;;;4887540;29;20676;-70
2021/01/02 11:08:36;;;;;;;43.17;17.00;;;;;;;;;;4886598;29;20121;-69
2021/01/02 11:11:03;;;;;;;39.97;16.25;;;;;;;;;;4885864;29;20140;-70
2021/01/02 11:13:29;;;;;;;48.85;17.73;;;;;;;;;;4892674;29;20045;-70
2021/01/02 11:15:55;;;;;;;35.05;15.32;;;;;;;;;;4892991;29;20048;-70
2021/01/02 11:18:22;;;;;;;45.92;16.73;;;;;;;;;;4878335;29;20092;-70
2021/01/02 11:20:48;;;;;;;45.13;16.95;;;;;;;;;;4889635;29;20081;-70
2021/01/02 11:23:15;;;;;;;46.58;16.45;;;;;;;;;;4893736;29;20104;-70
2021/01/02 11:25:41;;;;;;;46.03;17.03;;;;;;;;;;4888535;29;20053;-70
2021/01/02 11:28:07;;;;;;;36.35;16.45;;;;;;;;;;4891135;29;20045;-70
2021/01/02 11:30:33;;;;;;;33.90;15.43;;;;;;;;;;4878959;29;20108;-70
2021/01/02 11:32:59;;;;;;;34.72;15.32;;;;;;;;;;4893319;29;20048;-70
2021/01/02 11:35:25;;;;;;;38.08;15.48;;;;;;;;;;4890272;29;20049;-70
2021/01/02 11:37:51;;;;;;;28.70;14.65;;;;;;;;;;4881408;29;20137;-70
2021/01/02 11:40:18;;;;;;;37.33;16.23;;;;;;;;;;4894251;29;20438;-70
2021/01/02 11:42:44;;;;;;;35.00;16.13;;;;;;;;;;4889752;29;20112;-70
2021/01/02 11:45:15;;;;;;;31.13;15.07;;;;;;;;;;4883492;29;20621;-70
2021/01/02 11:47:41;;;;;;;30.05;15.00;;;;;;;;;;4891930;29;20101;-70
2021/01/02 11:50:07;;;;;;;40.53;15.10;;;;;;;;;;4885745;29;20112;-70
2021/01/02 11:52:33;;;;;;;41.03;16.95;;;;;;;;;;4888931;29;20049;-70
2021/01/02 11:54:59;;;;;;;35.70;15.35;;;;;;;;;;4890645;29;20043;-70
2021/01/02 11:57:25;;;;;;;33.53;15.38;;;;;;;;;;4893463;29;20047;-70
2021/01/02 11:59:52;;;;;;;33.00;15.18;;;;;;;;;;4890933;29;20124;-70
2021/01/02 12:02:18;;;;;;;27.30;15.20;;;;;;;;;;4886293;29;20041;-70
2021/01/02 12:04:45;;;;;;;30.67;15.73;;;;;;;;;;4895812;29;20048;-70
2021/01/02 12:07:11;;;;;;;31.92;15.80;;;;;;;;;;4890075;29;20036;-70
2021/01/02 12:09:38;;;;;;;29.15;14.93;;;;;;;;;;4894406;29;20052;-71
2021/01/02 12:12:05;;;;;;;31.33;15.40;;;;;;;;;;4888091;29;20048;-70
2021/01/02 12:14:33;;;;;;;27.85;14.40;;;;;;;;;;4892603;29;20104;-70
2021/01/02 12:16:59;;;;;;;;;;;;;;;;;;4887698;29;20051;-70
2021/01/02 12:19:26;;;;;;;23.52;12.60;;;;;;;;;;4889803;29;19929;-70
2021/01/02 12:21:53;;;;;;;30.98;14.50;;;;;;;;;;4883863;29;20053;-70
2021/01/02 12:24:19;;;;;;;24.73;13.57;;;;;;;;;;4879700;29;20444;-70
2021/01/02 12:26:46;;;;;;;23.88;12.13;;;;;;;;;;4878622;29;20532;-69
2021/01/02 12:29:13;;;;;;;18.40;9.82;;;;;;;;;;4882072;29;20044;-70
2021/01/02 12:31:43;;;;;;;31.88;13.98;;;;;;;;;;4884649;29;20045;-70
2021/01/02 12:34:10;;;;;;;23.42;12.32;;;;;;;;;;4895354;29;20044;-70
2021/01/02 12:36:39;;;;;;;25.88;12.75;;;;;;;;;;4893540;29;20052;-70
2021/01/02 12:39:05;;;;;;;23.15;12.00;;;;;;;;;;4893626;29;20097;-70
2021/01/02 12:41:32;;;;;;;28.83;12.97;;;;;;;;;;4890489;29;20109;-70
2021/01/02 12:43:59;;;;;;;17.92;9.02;;;;;;;;;;4891117;29;20092;-70
2021/01/02 12:46:25;;;;;;;23.88;11.35;;;;;;;;;;4894681;29;20060;-70
2021/01/02 12:48:51;;;;;;;23.27;12.00;;;;;;;;;;4889420;29;20128;-70
2021/01/02 12:51:19;;;;;;;25.58;13.07;;;;;;;;;;4891849;29;20047;-70
2021/01/02 12:53:46;;;;;;;27.52;12.98;;;;;;;;;;4893360;29;20055;-69
2021/01/02 12:56:12;;;;;;;23.83;13.10;;;;;;;;;;4893752;29;20049;-70
2021/01/02 12:58:38;;;;;;;25.67;12.02;;;;;;;;;;4888894;29;20759;-70
2021/01/02 13:01:04;;;;;;;23.20;11.68;;;;;;;;;;4893655;29;20068;-70
2021/01/02 13:03:31;;;;;;;21.98;11.20;;;;;;;;;;4877138;29;20064;-69
2021/01/02 13:05:57;;;;;;;18.15;10.55;;;;;;;;;;4892637;29;20044;-69
2021/01/02 13:08:23;;;;;;;19.92;10.98;;;;;;;;;;4899044;29;20044;-70
2021/01/02 13:10:49;;;;;;;18.42;11.73;;;;;;;;;;4895532;29;20051;-69
2021/01/02 13:13:17;;;;;;;23.23;11.25;;;;;;;;;;4891793;29;20047;-69
2021/01/02 13:15:43;;;;;;;14.82;8.18;;;;;;;;;;4894221;29;20052;-70
2021/01/02 13:18:09;;;;;;;19.77;10.85;;;;;;;;;;4894394;29;20049;-70
2021/01/02 13:20:35;;;;;;;19.27;10.35;;;;;;;;;;4893054;29;20092;-69
2021/01/02 13:23:02;;;;;;;21.95;10.15;;;;;;;;;;4890722;29;20064;-70
2021/01/02 13:25:29;;;;;;;18.52;9.93;;;;;;;;;;4893478;29;20055;-70
2021/01/02 13:27:55;;;;;;;13.02;8.60;;;;;;;;;;4888893;29;20045;-69
2021/01/02 13:30:21;;;;;;;13.40;8.73;;;;;;;;;;4892633;29;20130;-70
2021/01/02 13:32:47;;;;;;;13.35;8.10;;;;;;;;;;4893528;29;20048;-69
2021/01/02 13:35:13;;;;;;;14.95;9.23;;;;;;;;;;4892658;29;20051;-69
2021/01/02 13:37:39;;;;;;;16.35;9.10;;;;;;;;;;4896238;29;20857;-69
2021/01/02 13:40:06;;;;;;;19.73;9.60;;;;;;;;;;4900201;29;20458;-69
2021/01/02 13:42:32;;;;;;;16.55;8.90;;;;;;;;;;4895430;29;20051;-70
2021/01/02 13:44:58;;;;;;;17.15;9.88;;;;;;;;;;4893697;29;20213;-70
2021/01/02 13:47:24;;;;;;;16.52;9.50;;;;;;;;;;4877913;29;20108;-69
2021/01/02 13:49:54;;;;;;;20.48;10.75;;;;;;;;;;4892675;29;20497;-69
2021/01/02 13:52:21;;;;;;;23.42;11.00;;;;;;;;;;4896213;29;20105;-69
2021/01/02 13:54:48;;;;;;;18.52;10.18;;;;;;;;;;4892147;29;20048;-70
2021/01/02 13:57:14;;;;;;;19.10;10.15;;;;;;;;;;4895259;29;20072;-70
2021/01/02 13:59:45;;;;;;;19.48;10.68;;;;;;;;;;4893031;29;20044;-69
2021/01/02 14:02:11;;;;;;;23.33;10.52;;;;;;;;;;4888174;29;20052;-69
2021/01/02 14:04:37;;;;;;;24.27;11.50;;;;;;;;;;4891924;29;20441;-69
2021/01/02 14:07:04;;;;;;;24.97;10.67;;;;;;;;;;4889301;29;20048;-70
2021/01/02 14:09:30;;;;;;;28.98;12.27;;;;;;;;;;4893391;29;20304;-69
2021/01/02 14:11:57;;;;;;;36.67;13.00;;;;;;;;;;4879063;29;20098;-69
2021/01/02 14:14:24;;;;;;;30.45;12.48;;;;;;;;;;4892485;29;20579;-69
2021/01/02 14:16:54;;;;;;;21.50;10.82;;;;;;;;;;4891625;29;20060;-69
2021/01/02 14:19:21;;;;;;;21.33;11.18;;;;;;;;;;4877758;29;20429;-69
2021/01/02 14:21:48;;;;;;;;;;;;;;;;;;4895214;29;20053;-69